sensor_id;sensor_type;location;lat;lon;timestamp;temperature;humidity
44117;DHT22;29781;49.480;8.512;2023-09-18T00:01:26;24.60;99.90
44117;DHT22;29781;49.480;8.512;2023-09-18T00:03:52;24.60;99.90
44117;DHT22;29781;49.480;8.512;2023-09-18T00:06:17;24.70;99.90
44117;DHT22;29781;49.480;8.512;2023-09-18T00:08:43;24.70;99.90
44117;DHT22;29781;49.480;8.512;2023-09-18T00:11:08;24.70;99.90
44117;DHT22;29781;49.480;8.512;2023-09-18T00:13:35;24.70;99.90
44117;DHT22;29781;49.480;8.512;2023-09-18T00:16:00;24.50;99.90
44117;DHT22;29781;49.480;8.512;2023-09-18T00:18:26;24.60;99.90
44117;DHT22;29781;49.480;8.512;2023-09-18T00:20:52;24.60;99.90
44117;DHT22;29781;49.480;8.512;2023-09-18T00:23:17;24.60;99.90
44117;DHT22;29781;49.480;8.512;2023-09-18T00:25:43;24.50;99.90
44117;DHT22;29781;49.480;8.512;2023-09-18T00:28:08;24.50;99.90
44117;DHT22;29781;49.480;8.512;2023-09-18T00:30:34;24.60;99.90
44117;DHT22;29781;49.480;8.512;2023-09-18T00:32:59;24.60;99.90
44117;DHT22;29781;49.480;8.512;2023-09-18T00:35:25;24.60;99.90
44117;DHT22;29781;49.480;8.512;2023-09-18T00:37:51;24.50;99.90
44117;DHT22;29781;49.480;8.512;2023-09-18T00:40:16;24.50;99.90
44117;DHT22;29781;49.480;8.512;2023-09-18T00:42:42;24.50;99.90
44117;DHT22;29781;49.480;8.512;2023-09-18T00:45:08;24.60;99.90
44117;DHT22;29781;49.480;8.512;2023-09-18T00:47:35;24.60;99.90
44117;DHT22;29781;49.480;8.512;2023-09-18T00:50:02;24.50;99.90
44117;DHT22;29781;49.480;8.512;2023-09-18T00:52:29;24.50;99.90
44117;DHT22;29781;49.480;8.512;2023-09-18T00:54:56;24.50;99.90
44117;DHT22;29781;49.480;8.512;2023-09-18T00:57:22;24.50;99.90
44117;DHT22;29781;49.480;8.512;2023-09-18T00:59:48;24.50;99.90
44117;DHT22;29781;49.480;8.512;2023-09-18T01:02:13;24.40;99.90
44117;DHT22;29781;49.480;8.512;2023-09-18T01:04:39;24.50;99.90
44117;DHT22;29781;49.480;8.512;2023-09-18T01:07:09;24.40;99.90
44117;DHT22;29781;49.480;8.512;2023-09-18T01:09:35;24.40;99.90
44117;DHT22;29781;49.480;8.512;2023-09-18T01:12:05;24.40;99.90
44117;DHT22;29781;49.480;8.512;2023-09-18T01:14:40;24.40;99.90
44117;DHT22;29781;49.480;8.512;2023-09-18T01:17:09;24.40;99.90
44117;DHT22;29781;49.480;8.512;2023-09-18T01:19:40;24.40;99.90
44117;DHT22;29781;49.480;8.512;2023-09-18T01:22:07;24.20;99.90
44117;DHT22;29781;49.480;8.512;2023-09-18T01:24:33;24.10;99.90
44117;DHT22;29781;49.480;8.512;2023-09-18T01:26:59;24.00;99.90
44117;DHT22;29781;49.480;8.512;2023-09-18T01:29:25;23.90;99.90
44117;DHT22;29781;49.480;8.512;2023-09-18T01:31:51;23.80;99.90
44117;DHT22;29781;49.480;8.512;2023-09-18T01:34:20;23.70;99.90
44117;DHT22;29781;49.480;8.512;2023-09-18T01:36:46;23.90;99.90
44117;DHT22;29781;49.480;8.512;2023-09-18T01:39:12;23.90;99.90
44117;DHT22;29781;49.480;8.512;2023-09-18T01:41:40;23.90;99.90
44117;DHT22;29781;49.480;8.512;2023-09-18T01:44:06;24.00;99.90
44117;DHT22;29781;49.480;8.512;2023-09-18T01:46:32;24.10;99.90
44117;DHT22;29781;49.480;8.512;2023-09-18T01:49:01;24.10;99.90
44117;DHT22;29781;49.480;8.512;2023-09-18T01:51:28;24.00;99.90
44117;DHT22;29781;49.480;8.512;2023-09-18T01:53:55;24.00;99.90
44117;DHT22;29781;49.480;8.512;2023-09-18T01:56:20;24.00;99.90
44117;DHT22;29781;49.480;8.512;2023-09-18T01:58:46;24.20;99.90
44117;DHT22;29781;49.480;8.512;2023-09-18T02:01:11;23.90;99.90
44117;DHT22;29781;49.480;8.512;2023-09-18T02:03:37;24.00;99.90
44117;DHT22;29781;49.480;8.512;2023-09-18T02:06:07;23.80;99.90
44117;DHT22;29781;49.480;8.512;2023-09-18T02:08:34;23.70;99.90
44117;DHT22;29781;49.480;8.512;2023-09-18T02:10:59;23.60;99.90
44117;DHT22;29781;49.480;8.512;2023-09-18T02:13:25;23.60;99.90
44117;DHT22;29781;49.480;8.512;2023-09-18T02:15:50;23.60;99.90
44117;DHT22;29781;49.480;8.512;2023-09-18T02:18:16;23.50;99.90
44117;DHT22;29781;49.480;8.512;2023-09-18T02:20:42;23.50;99.90
44117;DHT22;29781;49.480;8.512;2023-09-18T02:23:07;23.50;99.90
44117;DHT22;29781;49.480;8.512;2023-09-18T02:25:33;23.50;99.90
44117;DHT22;29781;49.480;8.512;2023-09-18T02:27:58;23.60;99.90
44117;DHT22;29781;49.480;8.512;2023-09-18T02:30:24;23.50;99.90
44117;DHT22;29781;49.480;8.512;2023-09-18T02:32:49;23.40;99.90
44117;DHT22;29781;49.480;8.512;2023-09-18T02:35:15;23.40;99.90
44117;DHT22;29781;49.480;8.512;2023-09-18T02:37:41;23.10;99.90
44117;DHT22;29781;49.480;8.512;2023-09-18T02:40:07;23.10;99.90
44117;DHT22;29781;49.480;8.512;2023-09-18T02:42:33;23.10;99.90
44117;DHT22;29781;49.480;8.512;2023-09-18T02:44:58;23.20;99.90
44117;DHT22;29781;49.480;8.512;2023-09-18T02:47:24;23.20;99.90
44117;DHT22;29781;49.480;8.512;2023-09-18T02:49:49;23.20;99.90
44117;DHT22;29781;49.480;8.512;2023-09-18T02:52:15;23.20;99.90
44117;DHT22;29781;49.480;8.512;2023-09-18T02:54:40;23.20;99.90
44117;DHT22;29781;49.480;8.512;2023-09-18T02:57:06;23.10;99.90
44117;DHT22;29781;49.480;8.512;2023-09-18T02:59:31;23.00;99.90
44117;DHT22;29781;49.480;8.512;2023-09-18T03:01:57;22.90;99.90
44117;DHT22;29781;49.480;8.512;2023-09-18T03:04:23;22.80;99.90
44117;DHT22;29781;49.480;8.512;2023-09-18T03:06:48;22.80;99.90
44117;DHT22;29781;49.480;8.512;2023-09-18T03:09:14;22.70;99.90
44117;DHT22;29781;49.480;8.512;2023-09-18T03:11:41;22.80;99.90
44117;DHT22;29781;49.480;8.512;2023-09-18T03:14:06;22.90;99.90
44117;DHT22;29781;49.480;8.512;2023-09-18T03:16:32;22.90;99.90
44117;DHT22;29781;49.480;8.512;2023-09-18T03:18:58;22.70;99.90
44117;DHT22;29781;49.480;8.512;2023-09-18T03:21:24;22.60;99.90
44117;DHT22;29781;49.480;8.512;2023-09-18T03:23:49;22.70;99.90
44117;DHT22;29781;49.480;8.512;2023-09-18T03:26:15;22.70;99.90
44117;DHT22;29781;49.480;8.512;2023-09-18T03:28:41;22.70;99.90
44117;DHT22;29781;49.480;8.512;2023-09-18T03:31:06;22.70;99.90
44117;DHT22;29781;49.480;8.512;2023-09-18T03:33:32;22.60;99.90
44117;DHT22;29781;49.480;8.512;2023-09-18T03:35:57;22.80;99.90
44117;DHT22;29781;49.480;8.512;2023-09-18T03:38:24;22.80;99.90
44117;DHT22;29781;49.480;8.512;2023-09-18T03:40:50;22.90;99.90
44117;DHT22;29781;49.480;8.512;2023-09-18T03:43:15;22.90;99.90
44117;DHT22;29781;49.480;8.512;2023-09-18T03:45:41;22.90;99.90
44117;DHT22;29781;49.480;8.512;2023-09-18T03:48:06;22.80;99.90
44117;DHT22;29781;49.480;8.512;2023-09-18T03:50:32;22.70;99.90
44117;DHT22;29781;49.480;8.512;2023-09-18T03:52:57;22.70;99.90
44117;DHT22;29781;49.480;8.512;2023-09-18T03:55:23;22.60;99.90
44117;DHT22;29781;49.480;8.512;2023-09-18T03:57:49;22.60;99.90
44117;DHT22;29781;49.480;8.512;2023-09-18T04:00:14;22.60;99.90
44117;DHT22;29781;49.480;8.512;2023-09-18T04:02:41;22.60;99.90
44117;DHT22;29781;49.480;8.512;2023-09-18T04:05:07;22.60;99.90
44117;DHT22;29781;49.480;8.512;2023-09-18T04:07:32;22.50;99.90
44117;DHT22;29781;49.480;8.512;2023-09-18T04:09:58;22.60;99.90
44117;DHT22;29781;49.480;8.512;2023-09-18T04:12:23;22.60;99.90
44117;DHT22;29781;49.480;8.512;2023-09-18T04:14:49;22.60;99.90
44117;DHT22;29781;49.480;8.512;2023-09-18T04:17:15;22.60;99.90
44117;DHT22;29781;49.480;8.512;2023-09-18T04:19:40;22.50;99.90
44117;DHT22;29781;49.480;8.512;2023-09-18T04:22:06;22.30;99.90
44117;DHT22;29781;49.480;8.512;2023-09-18T04:24:32;22.20;99.90
44117;DHT22;29781;49.480;8.512;2023-09-18T04:26:57;22.10;99.90
44117;DHT22;29781;49.480;8.512;2023-09-18T04:29:23;22.00;99.90
44117;DHT22;29781;49.480;8.512;2023-09-18T04:31:48;22.00;99.90
44117;DHT22;29781;49.480;8.512;2023-09-18T04:34:14;22.00;99.90
44117;DHT22;29781;49.480;8.512;2023-09-18T04:36:39;22.10;99.90
44117;DHT22;29781;49.480;8.512;2023-09-18T04:39:05;22.00;99.90
44117;DHT22;29781;49.480;8.512;2023-09-18T04:41:32;21.90;99.90
44117;DHT22;29781;49.480;8.512;2023-09-18T04:43:57;21.80;99.90
44117;DHT22;29781;49.480;8.512;2023-09-18T04:46:23;21.70;99.90
44117;DHT22;29781;49.480;8.512;2023-09-18T04:48:50;21.70;99.90
44117;DHT22;29781;49.480;8.512;2023-09-18T04:51:15;21.60;99.90
44117;DHT22;29781;49.480;8.512;2023-09-18T04:53:41;21.50;99.90
44117;DHT22;29781;49.480;8.512;2023-09-18T04:56:07;21.40;99.90
44117;DHT22;29781;49.480;8.512;2023-09-18T04:58:35;21.40;99.90
44117;DHT22;29781;49.480;8.512;2023-09-18T05:01:02;21.40;99.90
44117;DHT22;29781;49.480;8.512;2023-09-18T05:03:30;21.40;99.90
44117;DHT22;29781;49.480;8.512;2023-09-18T05:05:55;21.40;99.90
44117;DHT22;29781;49.480;8.512;2023-09-18T05:08:21;21.30;99.90
44117;DHT22;29781;49.480;8.512;2023-09-18T05:10:47;21.20;99.90
44117;DHT22;29781;49.480;8.512;2023-09-18T05:13:13;21.30;99.90
44117;DHT22;29781;49.480;8.512;2023-09-18T05:15:38;21.30;99.90
44117;DHT22;29781;49.480;8.512;2023-09-18T05:18:04;21.30;99.90
44117;DHT22;29781;49.480;8.512;2023-09-18T05:20:31;21.30;99.90
44117;DHT22;29781;49.480;8.512;2023-09-18T05:22:58;21.30;99.90
44117;DHT22;29781;49.480;8.512;2023-09-18T05:25:27;21.30;99.90
44117;DHT22;29781;49.480;8.512;2023-09-18T05:27:56;21.30;99.90
44117;DHT22;29781;49.480;8.512;2023-09-18T05:30:26;21.40;99.90
44117;DHT22;29781;49.480;8.512;2023-09-18T05:32:56;21.30;99.90
44117;DHT22;29781;49.480;8.512;2023-09-18T05:35:22;21.30;99.90
44117;DHT22;29781;49.480;8.512;2023-09-18T05:37:49;21.40;99.90
44117;DHT22;29781;49.480;8.512;2023-09-18T05:40:15;21.40;99.90
44117;DHT22;29781;49.480;8.512;2023-09-18T05:42:42;21.20;99.90
44117;DHT22;29781;49.480;8.512;2023-09-18T05:45:14;21.10;99.90
44117;DHT22;29781;49.480;8.512;2023-09-18T05:47:42;21.20;99.90
44117;DHT22;29781;49.480;8.512;2023-09-18T05:50:11;21.40;99.90
44117;DHT22;29781;49.480;8.512;2023-09-18T05:52:41;21.40;99.90
44117;DHT22;29781;49.480;8.512;2023-09-18T05:55:07;21.30;99.90
44117;DHT22;29781;49.480;8.512;2023-09-18T05:57:34;21.30;99.90
44117;DHT22;29781;49.480;8.512;2023-09-18T05:59:59;21.40;99.90
44117;DHT22;29781;49.480;8.512;2023-09-18T06:02:25;21.40;99.90
44117;DHT22;29781;49.480;8.512;2023-09-18T06:04:57;21.50;99.90
44117;DHT22;29781;49.480;8.512;2023-09-18T06:07:29;21.60;99.90
44117;DHT22;29781;49.480;8.512;2023-09-18T06:09:55;21.50;99.90
44117;DHT22;29781;49.480;8.512;2023-09-18T06:12:21;21.50;99.90
44117;DHT22;29781;49.480;8.512;2023-09-18T06:14:47;21.60;99.90
44117;DHT22;29781;49.480;8.512;2023-09-18T06:17:13;21.40;99.90
44117;DHT22;29781;49.480;8.512;2023-09-18T06:19:40;21.40;99.90
44117;DHT22;29781;49.480;8.512;2023-09-18T06:22:06;21.30;99.90
44117;DHT22;29781;49.480;8.512;2023-09-18T06:24:33;21.10;99.90
44117;DHT22;29781;49.480;8.512;2023-09-18T06:26:59;21.20;99.90
44117;DHT22;29781;49.480;8.512;2023-09-18T06:29:24;21.40;99.90
44117;DHT22;29781;49.480;8.512;2023-09-18T06:31:50;21.50;99.90
44117;DHT22;29781;49.480;8.512;2023-09-18T06:34:16;21.50;99.90
44117;DHT22;29781;49.480;8.512;2023-09-18T06:36:42;21.60;99.90
44117;DHT22;29781;49.480;8.512;2023-09-18T06:39:07;21.60;99.90
44117;DHT22;29781;49.480;8.512;2023-09-18T06:41:33;21.50;99.90
44117;DHT22;29781;49.480;8.512;2023-09-18T06:44:00;21.50;99.90
44117;DHT22;29781;49.480;8.512;2023-09-18T06:46:29;21.50;99.90
44117;DHT22;29781;49.480;8.512;2023-09-18T06:48:55;21.50;99.90
44117;DHT22;29781;49.480;8.512;2023-09-18T06:51:22;21.50;99.90
44117;DHT22;29781;49.480;8.512;2023-09-18T06:53:47;21.50;99.90
44117;DHT22;29781;49.480;8.512;2023-09-18T06:56:13;21.50;99.90
44117;DHT22;29781;49.480;8.512;2023-09-18T06:58:38;21.50;99.90
44117;DHT22;29781;49.480;8.512;2023-09-18T07:01:04;21.50;99.90
44117;DHT22;29781;49.480;8.512;2023-09-18T07:03:33;21.50;99.90
44117;DHT22;29781;49.480;8.512;2023-09-18T07:06:00;21.50;99.90
44117;DHT22;29781;49.480;8.512;2023-09-18T07:08:26;21.50;99.90
44117;DHT22;29781;49.480;8.512;2023-09-18T07:10:52;21.50;99.90
44117;DHT22;29781;49.480;8.512;2023-09-18T07:13:17;21.50;99.90
44117;DHT22;29781;49.480;8.512;2023-09-18T07:15:43;21.50;99.90
44117;DHT22;29781;49.480;8.512;2023-09-18T07:18:10;21.60;99.90
44117;DHT22;29781;49.480;8.512;2023-09-18T07:20:45;21.60;99.90
44117;DHT22;29781;49.480;8.512;2023-09-18T07:23:11;21.70;99.90
44117;DHT22;29781;49.480;8.512;2023-09-18T07:25:36;21.70;99.90
44117;DHT22;29781;49.480;8.512;2023-09-18T07:28:06;21.70;99.90
44117;DHT22;29781;49.480;8.512;2023-09-18T07:30:31;21.70;99.90
44117;DHT22;29781;49.480;8.512;2023-09-18T07:32:57;21.70;99.90
44117;DHT22;29781;49.480;8.512;2023-09-18T07:35:23;21.70;99.90
44117;DHT22;29781;49.480;8.512;2023-09-18T07:37:49;21.70;99.90
44117;DHT22;29781;49.480;8.512;2023-09-18T07:40:15;21.70;99.90
44117;DHT22;29781;49.480;8.512;2023-09-18T07:42:41;21.70;99.90
44117;DHT22;29781;49.480;8.512;2023-09-18T07:45:09;21.80;99.90
44117;DHT22;29781;49.480;8.512;2023-09-18T07:47:35;21.70;99.90
44117;DHT22;29781;49.480;8.512;2023-09-18T07:50:00;21.80;99.90
44117;DHT22;29781;49.480;8.512;2023-09-18T07:52:26;21.70;99.90
44117;DHT22;29781;49.480;8.512;2023-09-18T07:54:52;21.70;99.90
44117;DHT22;29781;49.480;8.512;2023-09-18T07:57:17;21.70;99.90
44117;DHT22;29781;49.480;8.512;2023-09-18T07:59:44;21.60;99.90
44117;DHT22;29781;49.480;8.512;2023-09-18T08:02:09;21.50;99.90
44117;DHT22;29781;49.480;8.512;2023-09-18T08:04:35;21.50;99.90
44117;DHT22;29781;49.480;8.512;2023-09-18T08:07:01;21.50;99.90
44117;DHT22;29781;49.480;8.512;2023-09-18T08:09:26;21.50;99.90
44117;DHT22;29781;49.480;8.512;2023-09-18T08:11:55;21.50;99.90
44117;DHT22;29781;49.480;8.512;2023-09-18T08:14:21;21.40;99.90
44117;DHT22;29781;49.480;8.512;2023-09-18T08:16:47;21.40;99.90
44117;DHT22;29781;49.480;8.512;2023-09-18T08:19:15;21.40;99.90
44117;DHT22;29781;49.480;8.512;2023-09-18T08:21:42;21.50;99.90
44117;DHT22;29781;49.480;8.512;2023-09-18T08:24:08;21.40;99.90
44117;DHT22;29781;49.480;8.512;2023-09-18T08:26:33;21.50;99.90
44117;DHT22;29781;49.480;8.512;2023-09-18T08:28:59;21.50;99.90
44117;DHT22;29781;49.480;8.512;2023-09-18T08:31:24;21.50;99.90
44117;DHT22;29781;49.480;8.512;2023-09-18T08:33:50;21.50;99.90
44117;DHT22;29781;49.480;8.512;2023-09-18T08:36:16;21.40;99.90
44117;DHT22;29781;49.480;8.512;2023-09-18T08:38:41;21.60;99.90
44117;DHT22;29781;49.480;8.512;2023-09-18T08:41:11;21.60;99.90
44117;DHT22;29781;49.480;8.512;2023-09-18T08:43:39;21.50;99.90
44117;DHT22;29781;49.480;8.512;2023-09-18T08:46:07;21.50;99.90
44117;DHT22;29781;49.480;8.512;2023-09-18T08:48:32;21.50;99.90
44117;DHT22;29781;49.480;8.512;2023-09-18T08:51:06;21.60;99.90
44117;DHT22;29781;49.480;8.512;2023-09-18T08:53:34;21.60;99.90
44117;DHT22;29781;49.480;8.512;2023-09-18T08:56:01;21.60;99.90
44117;DHT22;29781;49.480;8.512;2023-09-18T08:58:37;21.50;99.90
44117;DHT22;29781;49.480;8.512;2023-09-18T09:01:05;21.60;99.90
44117;DHT22;29781;49.480;8.512;2023-09-18T09:03:36;21.70;99.90
44117;DHT22;29781;49.480;8.512;2023-09-18T09:06:02;21.70;99.90
44117;DHT22;29781;49.480;8.512;2023-09-18T09:08:29;21.60;99.90
44117;DHT22;29781;49.480;8.512;2023-09-18T09:10:54;21.60;99.90
44117;DHT22;29781;49.480;8.512;2023-09-18T09:13:20;21.80;99.90
44117;DHT22;29781;49.480;8.512;2023-09-18T09:15:52;21.80;99.90
44117;DHT22;29781;49.480;8.512;2023-09-18T09:18:19;21.80;99.90
44117;DHT22;29781;49.480;8.512;2023-09-18T09:20:59;21.80;99.90
44117;DHT22;29781;49.480;8.512;2023-09-18T09:23:29;21.90;99.90
44117;DHT22;29781;49.480;8.512;2023-09-18T09:26:11;21.90;99.90
44117;DHT22;29781;49.480;8.512;2023-09-18T09:28:37;21.90;99.90
44117;DHT22;29781;49.480;8.512;2023-09-18T09:31:03;21.90;99.90
44117;DHT22;29781;49.480;8.512;2023-09-18T09:33:30;22.00;99.90
44117;DHT22;29781;49.480;8.512;2023-09-18T09:35:56;21.80;99.90
44117;DHT22;29781;49.480;8.512;2023-09-18T09:38:31;21.80;99.90
44117;DHT22;29781;49.480;8.512;2023-09-18T09:41:00;21.80;99.90
44117;DHT22;29781;49.480;8.512;2023-09-18T09:43:27;21.80;99.90
44117;DHT22;29781;49.480;8.512;2023-09-18T09:46:02;21.90;99.90
44117;DHT22;29781;49.480;8.512;2023-09-18T09:48:29;21.90;99.90
44117;DHT22;29781;49.480;8.512;2023-09-18T09:50:59;21.90;99.90
44117;DHT22;29781;49.480;8.512;2023-09-18T09:53:45;21.90;99.90
44117;DHT22;29781;49.480;8.512;2023-09-18T09:56:13;21.80;99.90
44117;DHT22;29781;49.480;8.512;2023-09-18T09:58:39;21.90;99.90
44117;DHT22;29781;49.480;8.512;2023-09-18T10:01:11;21.90;99.90
44117;DHT22;29781;49.480;8.512;2023-09-18T10:03:41;21.90;99.90
44117;DHT22;29781;49.480;8.512;2023-09-18T10:06:08;21.90;99.90
44117;DHT22;29781;49.480;8.512;2023-09-18T10:08:36;21.90;99.90
44117;DHT22;29781;49.480;8.512;2023-09-18T10:11:07;21.90;99.90
44117;DHT22;29781;49.480;8.512;2023-09-18T10:13:47;22.00;99.90
44117;DHT22;29781;49.480;8.512;2023-09-18T10:16:18;22.00;99.90
44117;DHT22;29781;49.480;8.512;2023-09-18T10:18:55;22.10;99.90
44117;DHT22;29781;49.480;8.512;2023-09-18T10:21:26;22.10;99.90
44117;DHT22;29781;49.480;8.512;2023-09-18T10:24:09;22.10;99.90
44117;DHT22;29781;49.480;8.512;2023-09-18T10:26:44;22.20;99.90
44117;DHT22;29781;49.480;8.512;2023-09-18T10:29:14;22.10;99.90
44117;DHT22;29781;49.480;8.512;2023-09-18T10:31:41;22.10;99.90
44117;DHT22;29781;49.480;8.512;2023-09-18T10:34:10;22.10;99.90
44117;DHT22;29781;49.480;8.512;2023-09-18T10:36:39;22.10;99.90
44117;DHT22;29781;49.480;8.512;2023-09-18T10:39:06;22.10;99.90
44117;DHT22;29781;49.480;8.512;2023-09-18T10:41:36;22.20;99.90
44117;DHT22;29781;49.480;8.512;2023-09-18T10:44:03;22.30;99.90
44117;DHT22;29781;49.480;8.512;2023-09-18T10:46:29;22.30;99.90
44117;DHT22;29781;49.480;8.512;2023-09-18T10:48:56;22.30;99.90
44117;DHT22;29781;49.480;8.512;2023-09-18T10:51:22;22.40;99.90
44117;DHT22;29781;49.480;8.512;2023-09-18T10:53:49;22.50;99.90
44117;DHT22;29781;49.480;8.512;2023-09-18T10:56:15;22.60;99.90
44117;DHT22;29781;49.480;8.512;2023-09-18T10:58:45;22.70;99.90
44117;DHT22;29781;49.480;8.512;2023-09-18T11:01:13;22.70;99.90
44117;DHT22;29781;49.480;8.512;2023-09-18T11:03:39;22.70;99.90
44117;DHT22;29781;49.480;8.512;2023-09-18T11:06:08;22.80;99.90
44117;DHT22;29781;49.480;8.512;2023-09-18T11:08:47;22.90;99.90
44117;DHT22;29781;49.480;8.512;2023-09-18T11:11:16;23.10;99.90
44117;DHT22;29781;49.480;8.512;2023-09-18T11:13:50;23.10;99.90
44117;DHT22;29781;49.480;8.512;2023-09-18T11:16:34;23.10;99.90
44117;DHT22;29781;49.480;8.512;2023-09-18T11:21:33;23.10;99.90
44117;DHT22;29781;49.480;8.512;2023-09-18T11:24:21;23.10;99.90
44117;DHT22;29781;49.480;8.512;2023-09-18T11:26:49;23.10;99.90
44117;DHT22;29781;49.480;8.512;2023-09-18T11:29:22;23.20;99.90
44117;DHT22;29781;49.480;8.512;2023-09-18T11:31:53;23.10;99.90
44117;DHT22;29781;49.480;8.512;2023-09-18T11:36:46;23.10;99.90
44117;DHT22;29781;49.480;8.512;2023-09-18T11:39:12;23.10;99.90
44117;DHT22;29781;49.480;8.512;2023-09-18T11:41:38;23.20;99.90
44117;DHT22;29781;49.480;8.512;2023-09-18T11:46:38;23.30;99.90
44117;DHT22;29781;49.480;8.512;2023-09-18T11:49:08;23.40;99.90
44117;DHT22;29781;49.480;8.512;2023-09-18T11:51:36;23.50;99.90
44117;DHT22;29781;49.480;8.512;2023-09-18T11:54:02;23.50;99.90
44117;DHT22;29781;49.480;8.512;2023-09-18T11:56:29;23.50;99.90
44117;DHT22;29781;49.480;8.512;2023-09-18T11:58:55;23.50;99.90
44117;DHT22;29781;49.480;8.512;2023-09-18T12:01:21;23.60;99.90
44117;DHT22;29781;49.480;8.512;2023-09-18T12:03:53;23.80;99.90
44117;DHT22;29781;49.480;8.512;2023-09-18T12:06:19;23.80;99.90
44117;DHT22;29781;49.480;8.512;2023-09-18T12:08:46;23.70;99.90
44117;DHT22;29781;49.480;8.512;2023-09-18T12:11:12;23.60;99.90
44117;DHT22;29781;49.480;8.512;2023-09-18T12:13:50;23.50;99.90
44117;DHT22;29781;49.480;8.512;2023-09-18T12:16:16;23.40;99.90
44117;DHT22;29781;49.480;8.512;2023-09-18T12:18:48;23.50;99.90
44117;DHT22;29781;49.480;8.512;2023-09-18T12:21:14;23.50;99.90
44117;DHT22;29781;49.480;8.512;2023-09-18T12:23:41;23.40;99.90
44117;DHT22;29781;49.480;8.512;2023-09-18T12:26:09;23.40;99.90
44117;DHT22;29781;49.480;8.512;2023-09-18T12:28:36;23.50;99.90
44117;DHT22;29781;49.480;8.512;2023-09-18T12:31:02;23.60;99.90
44117;DHT22;29781;49.480;8.512;2023-09-18T12:33:34;23.70;99.90
44117;DHT22;29781;49.480;8.512;2023-09-18T12:36:00;23.70;99.90
44117;DHT22;29781;49.480;8.512;2023-09-18T12:38:26;23.80;99.90
44117;DHT22;29781;49.480;8.512;2023-09-18T12:40:53;23.70;99.90
44117;DHT22;29781;49.480;8.512;2023-09-18T12:43:20;23.60;99.90
44117;DHT22;29781;49.480;8.512;2023-09-18T12:45:51;23.60;99.90
44117;DHT22;29781;49.480;8.512;2023-09-18T12:48:18;23.60;99.90
44117;DHT22;29781;49.480;8.512;2023-09-18T12:50:44;23.50;99.90
44117;DHT22;29781;49.480;8.512;2023-09-18T12:53:13;23.50;99.90
44117;DHT22;29781;49.480;8.512;2023-09-18T12:55:40;23.50;99.90
44117;DHT22;29781;49.480;8.512;2023-09-18T12:58:10;23.50;99.90
44117;DHT22;29781;49.480;8.512;2023-09-18T13:00:36;23.60;99.90
44117;DHT22;29781;49.480;8.512;2023-09-18T13:03:03;23.60;99.90
44117;DHT22;29781;49.480;8.512;2023-09-18T13:05:30;23.50;99.90
44117;DHT22;29781;49.480;8.512;2023-09-18T13:08:02;23.60;99.90
44117;DHT22;29781;49.480;8.512;2023-09-18T13:10:28;23.60;99.90
44117;DHT22;29781;49.480;8.512;2023-09-18T13:12:54;23.60;99.90
44117;DHT22;29781;49.480;8.512;2023-09-18T13:15:30;23.70;99.90
44117;DHT22;29781;49.480;8.512;2023-09-18T13:17:59;23.70;99.90
44117;DHT22;29781;49.480;8.512;2023-09-18T13:20:28;23.60;99.90
44117;DHT22;29781;49.480;8.512;2023-09-18T13:22:58;23.50;99.90
44117;DHT22;29781;49.480;8.512;2023-09-18T13:25:29;23.50;99.90
44117;DHT22;29781;49.480;8.512;2023-09-18T13:27:55;23.60;99.90
44117;DHT22;29781;49.480;8.512;2023-09-18T13:30:21;23.60;99.90
44117;DHT22;29781;49.480;8.512;2023-09-18T13:32:48;23.60;99.90
44117;DHT22;29781;49.480;8.512;2023-09-18T13:35:18;23.60;99.90
44117;DHT22;29781;49.480;8.512;2023-09-18T13:37:44;23.70;99.90
44117;DHT22;29781;49.480;8.512;2023-09-18T13:40:11;23.70;99.90
44117;DHT22;29781;49.480;8.512;2023-09-18T13:42:37;23.80;99.90
44117;DHT22;29781;49.480;8.512;2023-09-18T13:45:04;23.70;99.90
44117;DHT22;29781;49.480;8.512;2023-09-18T13:47:30;23.80;99.90
44117;DHT22;29781;49.480;8.512;2023-09-18T13:49:56;23.80;99.90
44117;DHT22;29781;49.480;8.512;2023-09-18T13:52:29;23.80;99.90
44117;DHT22;29781;49.480;8.512;2023-09-18T13:54:55;23.90;99.90
44117;DHT22;29781;49.480;8.512;2023-09-18T13:57:21;23.90;99.90
44117;DHT22;29781;49.480;8.512;2023-09-18T13:59:47;23.80;99.90
44117;DHT22;29781;49.480;8.512;2023-09-18T14:02:14;23.80;99.90
44117;DHT22;29781;49.480;8.512;2023-09-18T14:04:40;23.80;99.90
44117;DHT22;29781;49.480;8.512;2023-09-18T14:07:07;23.80;99.90
44117;DHT22;29781;49.480;8.512;2023-09-18T14:09:33;23.90;99.90
44117;DHT22;29781;49.480;8.512;2023-09-18T14:11:58;23.90;99.90
44117;DHT22;29781;49.480;8.512;2023-09-18T14:14:24;23.90;99.90
44117;DHT22;29781;49.480;8.512;2023-09-18T14:16:50;23.80;99.90
44117;DHT22;29781;49.480;8.512;2023-09-18T14:19:16;23.80;99.90
44117;DHT22;29781;49.480;8.512;2023-09-18T14:21:42;23.90;99.90
44117;DHT22;29781;49.480;8.512;2023-09-18T14:24:09;23.90;99.90
44117;DHT22;29781;49.480;8.512;2023-09-18T14:26:35;24.00;99.90
44117;DHT22;29781;49.480;8.512;2023-09-18T14:29:07;24.00;99.90
44117;DHT22;29781;49.480;8.512;2023-09-18T14:31:33;24.00;99.90
44117;DHT22;29781;49.480;8.512;2023-09-18T14:33:59;24.10;99.90
44117;DHT22;29781;49.480;8.512;2023-09-18T14:36:25;24.20;99.90
44117;DHT22;29781;49.480;8.512;2023-09-18T14:38:51;24.30;99.90
44117;DHT22;29781;49.480;8.512;2023-09-18T14:41:16;24.30;99.90
44117;DHT22;29781;49.480;8.512;2023-09-18T14:43:44;24.30;99.90
44117;DHT22;29781;49.480;8.512;2023-09-18T14:46:10;24.40;99.90
44117;DHT22;29781;49.480;8.512;2023-09-18T14:48:35;24.40;99.90
44117;DHT22;29781;49.480;8.512;2023-09-18T14:51:01;24.40;99.90
44117;DHT22;29781;49.480;8.512;2023-09-18T14:53:27;24.30;99.90
44117;DHT22;29781;49.480;8.512;2023-09-18T14:55:52;24.20;99.90
44117;DHT22;29781;49.480;8.512;2023-09-18T14:58:20;24.20;99.90
44117;DHT22;29781;49.480;8.512;2023-09-18T15:00:48;24.10;99.90
44117;DHT22;29781;49.480;8.512;2023-09-18T15:03:14;24.20;99.90
44117;DHT22;29781;49.480;8.512;2023-09-18T15:05:40;24.20;99.90
44117;DHT22;29781;49.480;8.512;2023-09-18T15:08:07;24.30;99.90
44117;DHT22;29781;49.480;8.512;2023-09-18T15:10:32;24.30;99.90
44117;DHT22;29781;49.480;8.512;2023-09-18T15:12:58;24.30;99.90
44117;DHT22;29781;49.480;8.512;2023-09-18T15:15:23;24.30;99.90
44117;DHT22;29781;49.480;8.512;2023-09-18T15:17:50;24.30;99.90
44117;DHT22;29781;49.480;8.512;2023-09-18T15:20:17;24.30;99.90
44117;DHT22;29781;49.480;8.512;2023-09-18T15:22:44;24.30;99.90
44117;DHT22;29781;49.480;8.512;2023-09-18T15:25:12;24.30;99.90
44117;DHT22;29781;49.480;8.512;2023-09-18T15:27:38;24.30;99.90
44117;DHT22;29781;49.480;8.512;2023-09-18T15:30:04;24.30;99.90
44117;DHT22;29781;49.480;8.512;2023-09-18T15:32:33;24.30;99.90
44117;DHT22;29781;49.480;8.512;2023-09-18T15:35:10;24.30;99.90
44117;DHT22;29781;49.480;8.512;2023-09-18T15:37:36;24.20;99.90